CCA0830 ZLLL-ZLDH
Flight info
| Callsign | CCA0830 |
|---|---|
| Flight time | 1h 34m |
| Altitude | 32100 |
| Route | LELUX B215 TODOD |
| Aircraft | A320/L-V/N |
Departure
| Time | 2026-04-27 04:12 |
|---|---|
| Airport | Lanzhou Zhongchuan International Airport (ZLLL) |
Arrival
| Time | 2026-04-27 05:47 |
|---|---|
| Airport | Dunhuang Mogao International Airport (ZLDH) |
| Time | Latitude | Longitude | Altitude | Speed | Heading |
|---|---|---|---|---|---|
| 2026-04-27 03:37 | 36.53058 | 103.63853 | 6390 ft | 0 kts | 357° |
| 2026-04-27 03:59 | 36.53057 | 103.63853 | 6389 ft | 1 kts | 357° |
| 2026-04-27 04:00 | 36.53042 | 103.63854 | 6392 ft | 3 kts | 357° |
| 2026-04-27 04:00 | 36.53022 | 103.63854 | 6391 ft | 3 kts | 5° |
| 2026-04-27 04:00 | 36.53002 | 103.63851 | 6390 ft | 3 kts | 21° |
| 2026-04-27 04:00 | 36.52986 | 103.63839 | 6390 ft | 3 kts | 58° |
| 2026-04-27 04:01 | 36.52981 | 103.63827 | 6387 ft | 1 kts | 87° |
| 2026-04-27 04:04 | 36.52982 | 103.63846 | 6387 ft | 4 kts | 86° |
| 2026-04-27 04:04 | 36.52984 | 103.63889 | 6387 ft | 6 kts | 86° |
| 2026-04-27 04:04 | 36.52986 | 103.63930 | 6387 ft | 4 kts | 86° |
| 2026-04-27 04:05 | 36.52989 | 103.63981 | 6388 ft | 6 kts | 86° |
| 2026-04-27 04:05 | 36.52990 | 103.64014 | 6387 ft | 4 kts | 91° |
| 2026-04-27 04:05 | 36.52990 | 103.64064 | 6390 ft | 8 kts | 89° |
| 2026-04-27 04:05 | 36.52992 | 103.64133 | 6387 ft | 8 kts | 86° |
| 2026-04-27 04:06 | 36.53019 | 103.64176 | 6391 ft | 7 kts | 25° |
| 2026-04-27 04:06 | 36.53071 | 103.64180 | 6390 ft | 9 kts | 357° |
| 2026-04-27 04:06 | 36.53136 | 103.64181 | 6389 ft | 8 kts | 22° |
| 2026-04-27 04:07 | 36.53217 | 103.64261 | 6390 ft | 9 kts | 359° |
| 2026-04-27 04:07 | 36.53288 | 103.64259 | 6391 ft | 11 kts | 358° |
| 2026-04-27 04:07 | 36.53370 | 103.64253 | 6393 ft | 13 kts | 356° |
| 2026-04-27 04:07 | 36.53463 | 103.64245 | 6394 ft | 14 kts | 356° |
| 2026-04-27 04:08 | 36.53560 | 103.64238 | 6396 ft | 12 kts | 356° |
| 2026-04-27 04:08 | 36.53646 | 103.64234 | 6397 ft | 13 kts | 359° |
| 2026-04-27 04:08 | 36.53723 | 103.64231 | 6399 ft | 11 kts | 358° |
| 2026-04-27 04:08 | 36.53805 | 103.64226 | 6400 ft | 11 kts | 356° |
| 2026-04-27 04:09 | 36.53859 | 103.64231 | 6400 ft | 3 kts | 36° |
| 2026-04-27 04:09 | 36.53860 | 103.64248 | 6401 ft | 3 kts | 90° |
| 2026-04-27 04:09 | 36.53860 | 103.64273 | 6401 ft | 0 kts | 88° |
| 2026-04-27 04:10 | 36.53860 | 103.64278 | 6401 ft | 2 kts | 88° |
| 2026-04-27 04:10 | 36.53861 | 103.64304 | 6402 ft | 4 kts | 88° |
| 2026-04-27 04:10 | 36.53863 | 103.64348 | 6402 ft | 6 kts | 87° |
| 2026-04-27 04:10 | 36.53865 | 103.64402 | 6403 ft | 4 kts | 86° |
| 2026-04-27 04:11 | 36.53848 | 103.64422 | 6402 ft | 0 kts | 177° |
| 2026-04-27 04:11 | 36.53831 | 103.64423 | 6402 ft | 8 kts | 174° |
| 2026-04-27 04:11 | 36.53583 | 103.64444 | 6397 ft | 62 kts | 175° |
| 2026-04-27 04:11 | 36.52989 | 103.64484 | 6385 ft | 107 kts | 176° |
| 2026-04-27 04:12 | 36.52128 | 103.64540 | 6368 ft | 140 kts | 176° |
| 2026-04-27 04:12 | 36.51064 | 103.64612 | 6356 ft | 166 kts | 177° |
| 2026-04-27 04:12 | 36.49882 | 103.64680 | 6902 ft | 166 kts | 178° |
| 2026-04-27 04:12 | 36.48764 | 103.64736 | 7566 ft | 159 kts | 177° |
| 2026-04-27 04:13 | 36.47675 | 103.64793 | 8420 ft | 154 kts | 176° |
| 2026-04-27 04:13 | 36.46559 | 103.64864 | 8914 ft | 170 kts | 176° |
| 2026-04-27 04:13 | 36.45331 | 103.64951 | 9346 ft | 189 kts | 176° |
| 2026-04-27 04:13 | 36.43946 | 103.65045 | 9792 ft | 209 kts | 176° |
| 2026-04-27 04:14 | 36.42396 | 103.65146 | 10193 ft | 231 kts | 176° |
| 2026-04-27 04:14 | 36.40730 | 103.65250 | 10476 ft | 256 kts | 177° |
| 2026-04-27 04:14 | 36.38887 | 103.65364 | 11019 ft | 270 kts | 177° |
| 2026-04-27 04:14 | 36.36974 | 103.65482 | 11918 ft | 273 kts | 177° |
| 2026-04-27 04:15 | 36.35062 | 103.65599 | 12779 ft | 278 kts | 178° |
| 2026-04-27 04:15 | 36.33142 | 103.65718 | 13642 ft | 281 kts | 178° |
| 2026-04-27 04:15 | 36.31175 | 103.65842 | 14452 ft | 285 kts | 178° |
| 2026-04-27 04:15 | 36.29180 | 103.65969 | 15192 ft | 289 kts | 178° |
| 2026-04-27 04:16 | 36.27155 | 103.66097 | 15946 ft | 293 kts | 179° |
| 2026-04-27 04:16 | 36.25102 | 103.66226 | 16700 ft | 297 kts | 179° |
| 2026-04-27 04:16 | 36.23017 | 103.66356 | 17431 ft | 301 kts | 180° |
| 2026-04-27 04:16 | 36.20911 | 103.66488 | 18165 ft | 305 kts | 180° |
| 2026-04-27 04:17 | 36.18778 | 103.66621 | 18841 ft | 309 kts | 180° |
| 2026-04-27 04:17 | 36.16643 | 103.67016 | 19449 ft | 317 kts | 163° |
| 2026-04-27 04:17 | 36.14723 | 103.68412 | 20027 ft | 328 kts | 139° |
| 2026-04-27 04:17 | 36.13345 | 103.70690 | 20577 ft | 337 kts | 116° |
| 2026-04-27 04:18 | 36.12753 | 103.73511 | 21132 ft | 344 kts | 92° |
| 2026-04-27 04:18 | 36.13058 | 103.76443 | 21683 ft | 346 kts | 68° |
| 2026-04-27 04:18 | 36.14221 | 103.79026 | 22235 ft | 345 kts | 45° |
| 2026-04-27 04:18 | 36.16060 | 103.80871 | 22778 ft | 340 kts | 21° |
| 2026-04-27 04:19 | 36.18285 | 103.81704 | 23340 ft | 331 kts | 358° |
| 2026-04-27 04:19 | 36.20529 | 103.81415 | 23898 ft | 322 kts | 335° |
| 2026-04-27 04:19 | 36.22488 | 103.80163 | 24383 ft | 316 kts | 322° |
| 2026-04-27 04:19 | 36.24373 | 103.78732 | 24915 ft | 320 kts | 326° |
| 2026-04-27 04:20 | 36.26409 | 103.77573 | 25426 ft | 325 kts | 334° |
| 2026-04-27 04:20 | 36.28578 | 103.76719 | 25937 ft | 329 kts | 339° |
| 2026-04-27 04:20 | 36.30821 | 103.76066 | 26414 ft | 333 kts | 342° |
| 2026-04-27 04:20 | 36.33103 | 103.75509 | 26910 ft | 336 kts | 343° |
| 2026-04-27 04:21 | 36.35411 | 103.74980 | 27396 ft | 338 kts | 343° |
| 2026-04-27 04:21 | 36.37730 | 103.74452 | 27829 ft | 340 kts | 343° |
| 2026-04-27 04:21 | 36.40081 | 103.73977 | 28175 ft | 350 kts | 351° |
| 2026-04-27 04:21 | 36.42545 | 103.74323 | 28270 ft | 376 kts | 11° |
| 2026-04-27 04:22 | 36.44970 | 103.75775 | 28396 ft | 400 kts | 29° |
| 2026-04-27 04:22 | 36.47199 | 103.77944 | 28614 ft | 412 kts | 35° |
| 2026-04-27 04:22 | 36.49361 | 103.80299 | 29044 ft | 415 kts | 36° |
| 2026-04-27 04:22 | 36.51515 | 103.82703 | 29477 ft | 418 kts | 36° |
| 2026-04-27 04:23 | 36.53684 | 103.85137 | 29905 ft | 420 kts | 36° |
| 2026-04-27 04:23 | 36.55942 | 103.87422 | 30243 ft | 417 kts | 25° |
| 2026-04-27 04:23 | 36.58554 | 103.88957 | 30350 ft | 414 kts | 9° |
| 2026-04-27 04:23 | 36.61368 | 103.89571 | 30447 ft | 410 kts | 354° |
| 2026-04-27 04:24 | 36.67092 | 103.88895 | 30617 ft | 421 kts | 346° |
| 2026-04-27 04:24 | 36.70045 | 103.88466 | 30703 ft | 432 kts | 348° |
| 2026-04-27 04:24 | 36.73075 | 103.88142 | 30786 ft | 443 kts | 349° |
| 2026-04-27 04:25 | 36.76178 | 103.87899 | 30991 ft | 449 kts | 350° |
| 2026-04-27 04:25 | 36.79299 | 103.87687 | 31334 ft | 449 kts | 348° |
| 2026-04-27 04:25 | 36.82332 | 103.86991 | 31749 ft | 438 kts | 337° |
| 2026-04-27 04:25 | 36.85124 | 103.85609 | 32175 ft | 427 kts | 327° |
| 2026-04-27 04:26 | 36.87594 | 103.83652 | 32339 ft | 416 kts | 316° |
| 2026-04-27 04:26 | 36.89673 | 103.81209 | 32350 ft | 408 kts | 307° |
| 2026-04-27 04:26 | 36.92803 | 103.75360 | 32351 ft | 405 kts | 298° |
| 2026-04-27 04:27 | 36.95760 | 103.69370 | 32361 ft | 404 kts | 298° |
| 2026-04-27 04:27 | 36.98716 | 103.63387 | 32352 ft | 404 kts | 299° |
| 2026-04-27 04:28 | 37.01666 | 103.57402 | 32356 ft | 404 kts | 298° |
| 2026-04-27 04:28 | 37.04591 | 103.51452 | 32359 ft | 404 kts | 298° |
| 2026-04-27 04:29 | 37.07534 | 103.45457 | 32361 ft | 404 kts | 298° |
| 2026-04-27 04:29 | 37.10471 | 103.39463 | 32356 ft | 404 kts | 298° |
| 2026-04-27 04:30 | 37.13403 | 103.33467 | 32351 ft | 403 kts | 298° |
| 2026-04-27 04:30 | 37.15862 | 103.27181 | 32350 ft | 401 kts | 289° |
| 2026-04-27 04:31 | 37.17534 | 103.20518 | 32352 ft | 400 kts | 286° |
| 2026-04-27 04:31 | 37.19161 | 103.13838 | 32342 ft | 401 kts | 286° |
| 2026-04-27 04:32 | 37.20786 | 103.07139 | 32341 ft | 401 kts | 286° |
| 2026-04-27 04:32 | 37.22402 | 103.00446 | 32346 ft | 400 kts | 286° |
| 2026-04-27 04:33 | 37.24008 | 102.93761 | 32351 ft | 400 kts | 286° |
| 2026-04-27 04:33 | 37.25613 | 102.87066 | 32347 ft | 401 kts | 286° |
| 2026-04-27 04:34 | 37.27215 | 102.80364 | 32345 ft | 400 kts | 286° |
| 2026-04-27 04:34 | 37.28813 | 102.73658 | 32354 ft | 400 kts | 286° |
| 2026-04-27 04:35 | 37.30409 | 102.66949 | 32350 ft | 401 kts | 286° |
| 2026-04-27 04:35 | 37.31999 | 102.60234 | 32340 ft | 401 kts | 286° |
| 2026-04-27 04:36 | 37.33586 | 102.53523 | 32350 ft | 400 kts | 285° |
| 2026-04-27 04:36 | 37.35158 | 102.46856 | 32351 ft | 400 kts | 285° |
| 2026-04-27 04:37 | 37.36673 | 102.40116 | 32360 ft | 401 kts | 283° |
| 2026-04-27 04:37 | 37.37973 | 102.33309 | 32349 ft | 400 kts | 283° |
| 2026-04-27 04:38 | 37.39279 | 102.26499 | 32358 ft | 401 kts | 283° |
| 2026-04-27 04:38 | 37.40605 | 102.19695 | 32355 ft | 400 kts | 283° |
| 2026-04-27 04:39 | 37.41932 | 102.12896 | 32358 ft | 401 kts | 283° |
| 2026-04-27 04:39 | 37.43032 | 102.07241 | 32358 ft | 401 kts | 283° |
| 2026-04-27 04:40 | 37.44352 | 102.00428 | 32355 ft | 401 kts | 283° |
| 2026-04-27 04:40 | 37.45670 | 101.93612 | 32348 ft | 400 kts | 283° |
| 2026-04-27 04:41 | 37.46981 | 101.86804 | 32353 ft | 401 kts | 283° |
| 2026-04-27 04:41 | 37.48292 | 101.79975 | 32353 ft | 401 kts | 283° |
| 2026-04-27 04:42 | 37.49600 | 101.73141 | 32343 ft | 401 kts | 283° |
| 2026-04-27 04:42 | 37.51423 | 101.66489 | 32342 ft | 403 kts | 293° |
| 2026-04-27 04:43 | 37.54027 | 101.60274 | 32330 ft | 403 kts | 296° |
| 2026-04-27 04:43 | 37.56681 | 101.54048 | 32332 ft | 403 kts | 296° |
| 2026-04-27 04:44 | 37.59329 | 101.47819 | 32326 ft | 403 kts | 296° |
| 2026-04-27 04:44 | 37.61976 | 101.41593 | 32323 ft | 403 kts | 296° |
| 2026-04-27 04:45 | 37.64618 | 101.35365 | 32321 ft | 403 kts | 296° |
| 2026-04-27 04:45 | 37.67257 | 101.29134 | 32318 ft | 403 kts | 296° |
| 2026-04-27 04:46 | 37.69883 | 101.22921 | 32318 ft | 403 kts | 296° |
| 2026-04-27 04:46 | 37.72519 | 101.16672 | 32314 ft | 403 kts | 296° |
| 2026-04-27 04:47 | 37.75155 | 101.10410 | 32316 ft | 404 kts | 296° |
| 2026-04-27 04:47 | 37.77786 | 101.04148 | 32309 ft | 403 kts | 296° |
| 2026-04-27 04:48 | 37.80413 | 100.97886 | 32312 ft | 403 kts | 296° |
| 2026-04-27 04:48 | 37.83036 | 100.91617 | 32303 ft | 403 kts | 296° |
| 2026-04-27 04:49 | 37.85769 | 100.85410 | 32309 ft | 404 kts | 297° |
| 2026-04-27 04:49 | 37.88556 | 100.79242 | 32303 ft | 404 kts | 297° |
| 2026-04-27 04:50 | 37.91325 | 100.73058 | 32307 ft | 403 kts | 297° |
| 2026-04-27 04:50 | 37.94083 | 100.66863 | 32305 ft | 404 kts | 297° |
| 2026-04-27 04:51 | 37.96835 | 100.60663 | 32297 ft | 404 kts | 297° |
| 2026-04-27 04:51 | 37.99567 | 100.54495 | 32300 ft | 404 kts | 297° |
| 2026-04-27 04:52 | 38.02314 | 100.48281 | 32299 ft | 404 kts | 297° |
| 2026-04-27 04:52 | 38.05061 | 100.42057 | 32291 ft | 405 kts | 297° |
| 2026-04-27 04:53 | 38.07806 | 100.35822 | 32293 ft | 405 kts | 297° |
| 2026-04-27 04:53 | 38.10555 | 100.29568 | 32287 ft | 407 kts | 297° |
| 2026-04-27 04:54 | 38.13304 | 100.23300 | 32286 ft | 406 kts | 297° |
| 2026-04-27 04:54 | 38.16052 | 100.17026 | 32287 ft | 406 kts | 297° |
| 2026-04-27 04:55 | 38.18796 | 100.10746 | 32283 ft | 407 kts | 297° |
| 2026-04-27 04:55 | 38.21539 | 100.04454 | 32283 ft | 407 kts | 297° |
| 2026-04-27 04:56 | 38.24287 | 99.98141 | 32285 ft | 408 kts | 297° |
| 2026-04-27 04:56 | 38.27028 | 99.91831 | 32287 ft | 408 kts | 297° |
| 2026-04-27 04:57 | 38.29769 | 99.85507 | 32284 ft | 408 kts | 297° |
| 2026-04-27 04:57 | 38.32508 | 99.79176 | 32283 ft | 408 kts | 296° |
| 2026-04-27 04:58 | 38.35247 | 99.72834 | 32282 ft | 408 kts | 296° |
| 2026-04-27 04:58 | 38.37980 | 99.66490 | 32280 ft | 408 kts | 296° |
| 2026-04-27 04:59 | 38.40711 | 99.60140 | 32285 ft | 409 kts | 296° |
| 2026-04-27 04:59 | 38.43439 | 99.53784 | 32280 ft | 409 kts | 296° |
| 2026-04-27 05:00 | 38.46149 | 99.47460 | 32285 ft | 409 kts | 296° |
| 2026-04-27 05:00 | 38.48891 | 99.41044 | 32274 ft | 409 kts | 296° |
| 2026-04-27 05:01 | 38.51596 | 99.34710 | 32276 ft | 410 kts | 296° |
| 2026-04-27 05:01 | 38.54323 | 99.28315 | 32289 ft | 410 kts | 296° |
| 2026-04-27 05:02 | 38.57037 | 99.21924 | 32281 ft | 410 kts | 296° |
| 2026-04-27 05:03 | 38.61117 | 99.12291 | 32271 ft | 410 kts | 295° |
| 2026-04-27 05:03 | 38.63831 | 99.05867 | 32275 ft | 411 kts | 295° |
| 2026-04-27 05:04 | 38.66539 | 98.99446 | 32272 ft | 410 kts | 295° |
| 2026-04-27 05:04 | 38.69248 | 98.93010 | 32268 ft | 410 kts | 295° |
| 2026-04-27 05:05 | 38.71950 | 98.86576 | 32263 ft | 410 kts | 295° |
| 2026-04-27 05:05 | 38.74649 | 98.80139 | 32262 ft | 410 kts | 295° |
| 2026-04-27 05:06 | 38.77330 | 98.73728 | 32266 ft | 410 kts | 295° |
| 2026-04-27 05:06 | 38.80020 | 98.67283 | 32270 ft | 410 kts | 295° |
| 2026-04-27 05:07 | 38.82704 | 98.60840 | 32261 ft | 410 kts | 295° |
| 2026-04-27 05:07 | 38.85381 | 98.54399 | 32255 ft | 409 kts | 295° |
| 2026-04-27 05:08 | 38.88052 | 98.47961 | 32262 ft | 409 kts | 295° |
| 2026-04-27 05:08 | 38.90722 | 98.41511 | 32260 ft | 409 kts | 295° |
| 2026-04-27 05:09 | 38.93386 | 98.35063 | 32261 ft | 409 kts | 295° |
| 2026-04-27 05:09 | 38.96051 | 98.28600 | 32261 ft | 409 kts | 295° |
| 2026-04-27 05:10 | 38.98714 | 98.22128 | 32265 ft | 410 kts | 294° |
| 2026-04-27 05:10 | 39.01375 | 98.15646 | 32259 ft | 410 kts | 294° |
| 2026-04-27 05:11 | 39.04034 | 98.09155 | 32280 ft | 410 kts | 294° |
| 2026-04-27 05:11 | 39.06675 | 98.02699 | 32268 ft | 411 kts | 294° |
| 2026-04-27 05:12 | 39.09331 | 97.96186 | 32272 ft | 411 kts | 294° |
| 2026-04-27 05:12 | 39.11984 | 97.89671 | 32272 ft | 410 kts | 294° |
| 2026-04-27 05:13 | 39.14630 | 97.83157 | 32281 ft | 411 kts | 294° |
| 2026-04-27 05:13 | 39.17278 | 97.76629 | 32283 ft | 412 kts | 294° |
| 2026-04-27 05:14 | 39.19923 | 97.70093 | 32287 ft | 411 kts | 294° |
| 2026-04-27 05:14 | 39.22568 | 97.63551 | 32296 ft | 411 kts | 294° |
| 2026-04-27 05:15 | 39.25209 | 97.57005 | 32301 ft | 411 kts | 294° |
| 2026-04-27 05:15 | 39.27849 | 97.50458 | 32303 ft | 412 kts | 294° |
| 2026-04-27 05:16 | 39.30490 | 97.43900 | 32306 ft | 412 kts | 294° |
| 2026-04-27 05:16 | 39.33131 | 97.37328 | 32309 ft | 412 kts | 294° |
| 2026-04-27 05:17 | 39.35769 | 97.30749 | 32309 ft | 412 kts | 294° |
| 2026-04-27 05:17 | 39.38406 | 97.24157 | 32178 ft | 414 kts | 294° |
| 2026-04-27 05:17 | 39.39726 | 97.20854 | 31932 ft | 414 kts | 294° |
| 2026-04-27 05:18 | 39.41045 | 97.17547 | 31624 ft | 415 kts | 294° |
| 2026-04-27 05:18 | 39.42370 | 97.14224 | 31282 ft | 416 kts | 294° |
| 2026-04-27 05:18 | 39.43682 | 97.10928 | 30950 ft | 417 kts | 294° |
| 2026-04-27 05:18 | 39.45009 | 97.07590 | 30622 ft | 416 kts | 294° |
| 2026-04-27 05:19 | 39.46330 | 97.04266 | 30285 ft | 414 kts | 294° |
| 2026-04-27 05:19 | 39.47644 | 97.00962 | 29901 ft | 411 kts | 294° |
| 2026-04-27 05:19 | 39.48961 | 96.97680 | 29524 ft | 411 kts | 295° |
| 2026-04-27 05:19 | 39.50281 | 96.94396 | 29140 ft | 409 kts | 295° |
| 2026-04-27 05:20 | 39.51592 | 96.91130 | 28773 ft | 408 kts | 295° |
| 2026-04-27 05:20 | 39.52895 | 96.87876 | 28404 ft | 406 kts | 295° |
| 2026-04-27 05:20 | 39.54191 | 96.84634 | 28036 ft | 404 kts | 295° |
| 2026-04-27 05:20 | 39.55479 | 96.81406 | 27680 ft | 403 kts | 295° |
| 2026-04-27 05:21 | 39.56762 | 96.78187 | 27328 ft | 401 kts | 295° |
| 2026-04-27 05:21 | 39.58041 | 96.74976 | 26976 ft | 400 kts | 295° |
| 2026-04-27 05:21 | 39.59314 | 96.71776 | 26631 ft | 399 kts | 295° |
| 2026-04-27 05:21 | 39.60581 | 96.68589 | 26293 ft | 397 kts | 295° |
| 2026-04-27 05:22 | 39.61844 | 96.65407 | 25954 ft | 396 kts | 295° |
| 2026-04-27 05:22 | 39.63101 | 96.62235 | 25620 ft | 395 kts | 295° |
| 2026-04-27 05:22 | 39.64360 | 96.59085 | 25297 ft | 393 kts | 295° |
| 2026-04-27 05:22 | 39.65631 | 96.55936 | 24967 ft | 392 kts | 296° |
| 2026-04-27 05:23 | 39.66897 | 96.52804 | 24644 ft | 391 kts | 296° |
| 2026-04-27 05:23 | 39.68160 | 96.49677 | 24327 ft | 391 kts | 296° |
| 2026-04-27 05:23 | 39.69415 | 96.46558 | 24007 ft | 389 kts | 296° |
| 2026-04-27 05:23 | 39.70664 | 96.43450 | 23672 ft | 388 kts | 296° |
| 2026-04-27 05:24 | 39.71908 | 96.40352 | 23297 ft | 386 kts | 296° |
| 2026-04-27 05:24 | 39.73144 | 96.37268 | 22924 ft | 384 kts | 296° |
| 2026-04-27 05:24 | 39.74376 | 96.34194 | 22548 ft | 382 kts | 296° |
| 2026-04-27 05:24 | 39.75188 | 96.32164 | 22311 ft | 381 kts | 296° |
| 2026-04-27 05:25 | 39.76801 | 96.28128 | 21829 ft | 379 kts | 296° |
| 2026-04-27 05:25 | 39.78013 | 96.25091 | 21467 ft | 378 kts | 296° |
| 2026-04-27 05:25 | 39.79220 | 96.22065 | 21116 ft | 376 kts | 296° |
| 2026-04-27 05:25 | 39.80419 | 96.19056 | 20769 ft | 374 kts | 296° |
| 2026-04-27 05:26 | 39.81612 | 96.16058 | 20422 ft | 372 kts | 296° |
| 2026-04-27 05:26 | 39.82800 | 96.13072 | 20081 ft | 371 kts | 296° |
| 2026-04-27 05:26 | 39.83598 | 96.11060 | 19853 ft | 370 kts | 296° |
| 2026-04-27 05:26 | 39.84777 | 96.08091 | 19516 ft | 369 kts | 296° |
| 2026-04-27 05:27 | 39.85934 | 96.05173 | 19192 ft | 367 kts | 296° |
| 2026-04-27 05:27 | 39.87099 | 96.02234 | 18939 ft | 364 kts | 296° |
| 2026-04-27 05:27 | 39.88258 | 95.99306 | 18707 ft | 364 kts | 296° |
| 2026-04-27 05:27 | 39.89417 | 95.96373 | 18472 ft | 365 kts | 296° |
| 2026-04-27 05:28 | 39.90579 | 95.93433 | 18210 ft | 364 kts | 296° |
| 2026-04-27 05:28 | 39.91733 | 95.90509 | 17934 ft | 361 kts | 296° |
| 2026-04-27 05:28 | 39.92875 | 95.87612 | 17675 ft | 359 kts | 296° |
| 2026-04-27 05:28 | 39.94016 | 95.84718 | 17403 ft | 358 kts | 296° |
| 2026-04-27 05:29 | 39.95149 | 95.81839 | 17147 ft | 357 kts | 296° |
| 2026-04-27 05:29 | 39.96279 | 95.78964 | 16832 ft | 356 kts | 296° |
| 2026-04-27 05:29 | 39.97390 | 95.76087 | 16515 ft | 354 kts | 295° |
| 2026-04-27 05:29 | 39.98455 | 95.73207 | 16186 ft | 351 kts | 295° |
| 2026-04-27 05:30 | 39.99502 | 95.70340 | 15863 ft | 349 kts | 294° |
| 2026-04-27 05:30 | 40.00542 | 95.67497 | 15536 ft | 346 kts | 295° |
| 2026-04-27 05:30 | 40.01581 | 95.64668 | 15221 ft | 345 kts | 295° |
| 2026-04-27 05:30 | 40.02617 | 95.61853 | 14906 ft | 344 kts | 295° |
| 2026-04-27 05:31 | 40.03653 | 95.59038 | 14590 ft | 344 kts | 295° |
| 2026-04-27 05:31 | 40.04674 | 95.56266 | 14278 ft | 343 kts | 295° |
| 2026-04-27 05:31 | 40.05702 | 95.53473 | 13981 ft | 340 kts | 295° |
| 2026-04-27 05:31 | 40.06723 | 95.50697 | 13640 ft | 338 kts | 295° |
| 2026-04-27 05:32 | 40.07823 | 95.47985 | 13296 ft | 338 kts | 301° |
| 2026-04-27 05:32 | 40.09195 | 95.45507 | 12951 ft | 336 kts | 309° |
| 2026-04-27 05:32 | 40.10755 | 95.43238 | 12610 ft | 335 kts | 310° |
| 2026-04-27 05:32 | 40.12298 | 95.40999 | 12276 ft | 328 kts | 310° |
| 2026-04-27 05:33 | 40.13800 | 95.38805 | 11951 ft | 320 kts | 310° |
| 2026-04-27 05:33 | 40.15262 | 95.36664 | 11628 ft | 312 kts | 310° |
| 2026-04-27 05:33 | 40.16693 | 95.34567 | 11307 ft | 305 kts | 310° |
| 2026-04-27 05:33 | 40.18088 | 95.32522 | 10987 ft | 299 kts | 310° |
| 2026-04-27 05:34 | 40.19458 | 95.30515 | 10671 ft | 293 kts | 310° |
| 2026-04-27 05:34 | 40.20799 | 95.28548 | 10368 ft | 287 kts | 311° |
| 2026-04-27 05:34 | 40.22118 | 95.26613 | 10050 ft | 283 kts | 310° |
| 2026-04-27 05:34 | 40.23399 | 95.24732 | 9741 ft | 279 kts | 311° |
| 2026-04-27 05:35 | 40.24684 | 95.22844 | 9387 ft | 276 kts | 310° |
| 2026-04-27 05:35 | 40.25895 | 95.21064 | 9066 ft | 272 kts | 311° |
| 2026-04-27 05:35 | 40.27142 | 95.19228 | 8734 ft | 268 kts | 311° |
| 2026-04-27 05:35 | 40.28381 | 95.17400 | 8413 ft | 270 kts | 310° |
| 2026-04-27 05:36 | 40.29328 | 95.15275 | 8079 ft | 273 kts | 288° |
| 2026-04-27 05:36 | 40.29517 | 95.12809 | 7773 ft | 275 kts | 266° |
| 2026-04-27 05:36 | 40.29319 | 95.10312 | 7519 ft | 275 kts | 265° |
| 2026-04-27 05:36 | 40.29117 | 95.07832 | 7430 ft | 274 kts | 265° |
| 2026-04-27 05:37 | 40.28918 | 95.05342 | 7353 ft | 275 kts | 265° |
| 2026-04-27 05:37 | 40.28724 | 95.02865 | 7288 ft | 273 kts | 266° |
| 2026-04-27 05:37 | 40.28533 | 95.00384 | 7223 ft | 274 kts | 266° |
| 2026-04-27 05:37 | 40.28341 | 94.97895 | 7154 ft | 275 kts | 266° |
| 2026-04-27 05:38 | 40.28149 | 94.95404 | 7066 ft | 274 kts | 266° |
| 2026-04-27 05:38 | 40.27957 | 94.92945 | 6993 ft | 266 kts | 266° |
| 2026-04-27 05:38 | 40.27773 | 94.90581 | 6915 ft | 255 kts | 265° |
| 2026-04-27 05:38 | 40.27596 | 94.88318 | 6839 ft | 244 kts | 266° |
| 2026-04-27 05:39 | 40.27427 | 94.86161 | 6754 ft | 232 kts | 265° |
| 2026-04-27 05:39 | 40.27260 | 94.84045 | 6695 ft | 239 kts | 266° |
| 2026-04-27 05:39 | 40.27089 | 94.81846 | 6631 ft | 244 kts | 265° |
| 2026-04-27 05:39 | 40.26916 | 94.79645 | 6560 ft | 241 kts | 265° |
| 2026-04-27 05:40 | 40.26743 | 94.77470 | 6480 ft | 241 kts | 265° |
| 2026-04-27 05:40 | 40.26573 | 94.75297 | 6406 ft | 240 kts | 265° |
| 2026-04-27 05:40 | 40.26395 | 94.73122 | 6309 ft | 239 kts | 266° |
| 2026-04-27 05:40 | 40.26219 | 94.70949 | 6255 ft | 240 kts | 266° |
| 2026-04-27 05:41 | 40.26046 | 94.68788 | 6169 ft | 238 kts | 266° |
| 2026-04-27 05:41 | 40.25874 | 94.66633 | 6092 ft | 238 kts | 266° |
| 2026-04-27 05:41 | 40.25701 | 94.64475 | 6022 ft | 238 kts | 265° |
| 2026-04-27 05:41 | 40.25527 | 94.62303 | 5957 ft | 240 kts | 266° |
| 2026-04-27 05:42 | 40.25330 | 94.60161 | 5904 ft | 241 kts | 259° |
| 2026-04-27 05:42 | 40.24575 | 94.58240 | 5880 ft | 239 kts | 227° |
| 2026-04-27 05:42 | 40.23154 | 94.57090 | 5880 ft | 250 kts | 197° |
| 2026-04-27 05:42 | 40.21410 | 94.56935 | 5883 ft | 253 kts | 175° |
| 2026-04-27 05:43 | 40.19691 | 94.57305 | 5881 ft | 249 kts | 170° |
| 2026-04-27 05:43 | 40.17976 | 94.57750 | 5880 ft | 251 kts | 171° |
| 2026-04-27 05:43 | 40.16322 | 94.58268 | 5876 ft | 239 kts | 154° |
| 2026-04-27 05:43 | 40.15171 | 94.59645 | 5891 ft | 216 kts | 114° |
| 2026-04-27 05:44 | 40.14796 | 94.61523 | 5894 ft | 214 kts | 92° |
| 2026-04-27 05:44 | 40.14807 | 94.63426 | 5880 ft | 204 kts | 84° |
| 2026-04-27 05:44 | 40.14933 | 94.65256 | 5799 ft | 205 kts | 81° |
| 2026-04-27 05:44 | 40.15083 | 94.67140 | 5530 ft | 207 kts | 81° |
| 2026-04-27 05:45 | 40.15226 | 94.68972 | 5248 ft | 197 kts | 81° |
| 2026-04-27 05:45 | 40.15360 | 94.70696 | 5006 ft | 181 kts | 81° |
| 2026-04-27 05:45 | 40.15483 | 94.72245 | 4767 ft | 162 kts | 80° |
| 2026-04-27 05:45 | 40.15593 | 94.73662 | 4548 ft | 154 kts | 81° |
| 2026-04-27 05:46 | 40.15699 | 94.74966 | 4402 ft | 164 kts | 81° |
| 2026-04-27 05:46 | 40.15817 | 94.76488 | 4147 ft | 168 kts | 80° |
| 2026-04-27 05:46 | 40.15936 | 94.77972 | 3932 ft | 163 kts | 82° |
| 2026-04-27 05:46 | 40.16053 | 94.79451 | 3715 ft | 161 kts | 80° |
| 2026-04-27 05:47 | 40.16173 | 94.80769 | 3700 ft | 128 kts | 83° |
| 2026-04-27 05:47 | 40.16239 | 94.81705 | 3697 ft | 75 kts | 83° |
| 2026-04-27 05:47 | 40.16281 | 94.82231 | 3703 ft | 43 kts | 88° |
| 2026-04-27 05:47 | 40.16277 | 94.82501 | 3704 ft | 19 kts | 82° |
| 2026-04-27 05:48 | 40.16294 | 94.82527 | 3707 ft | 2 kts | 12° |
| 2026-04-27 05:48 | 40.16307 | 94.82519 | 3702 ft | 1 kts | 309° |
| 2026-04-27 05:48 | 40.16307 | 94.82507 | 3702 ft | 3 kts | 281° |
| 2026-04-27 05:48 | 40.16303 | 94.82469 | 3704 ft | 6 kts | 255° |
| 2026-04-27 05:49 | 40.16291 | 94.82404 | 3715 ft | 9 kts | 256° |
| 2026-04-27 05:49 | 40.16277 | 94.82311 | 3704 ft | 12 kts | 263° |
| 2026-04-27 05:49 | 40.16268 | 94.82197 | 3713 ft | 14 kts | 264° |
| 2026-04-27 05:49 | 40.16258 | 94.82068 | 3704 ft | 14 kts | 264° |
| 2026-04-27 05:50 | 40.16248 | 94.81935 | 3708 ft | 15 kts | 264° |
| 2026-04-27 05:50 | 40.16235 | 94.81785 | 3706 ft | 16 kts | 264° |
| 2026-04-27 05:50 | 40.16224 | 94.81625 | 3707 ft | 19 kts | 265° |
| 2026-04-27 05:50 | 40.16213 | 94.81462 | 3709 ft | 18 kts | 265° |
| 2026-04-27 05:51 | 40.16221 | 94.81340 | 3698 ft | 10 kts | 324° |
| 2026-04-27 05:51 | 40.16280 | 94.81335 | 3698 ft | 8 kts | 354° |
| 2026-04-27 05:51 | 40.16339 | 94.81327 | 3700 ft | 9 kts | 354° |
| 2026-04-27 05:51 | 40.16408 | 94.81318 | 3700 ft | 11 kts | 354° |
| 2026-04-27 05:52 | 40.16447 | 94.81259 | 3700 ft | 10 kts | 265° |
| 2026-04-27 05:52 | 40.16440 | 94.81157 | 3700 ft | 13 kts | 264° |
| 2026-04-27 05:52 | 40.16431 | 94.81042 | 3700 ft | 13 kts | 264° |
| 2026-04-27 05:52 | 40.16422 | 94.80918 | 3699 ft | 13 kts | 264° |
| 2026-04-27 05:53 | 40.16414 | 94.80814 | 3704 ft | 12 kts | 263° |
| 2026-04-27 05:53 | 40.16403 | 94.80691 | 3700 ft | 15 kts | 264° |
| 2026-04-27 05:53 | 40.16396 | 94.80599 | 3700 ft | 6 kts | 264° |
| 2026-04-27 05:53 | 40.16409 | 94.80553 | 3707 ft | 5 kts | 325° |
| 2026-04-27 05:54 | 40.16432 | 94.80550 | 3700 ft | 5 kts | 354° |
| 2026-04-27 05:54 | 40.16476 | 94.80544 | 3699 ft | 6 kts | 354° |
| 2026-04-27 05:54 | 40.16493 | 94.80542 | 3698 ft | 3 kts | 354° |
| 2026-04-27 05:54 | 40.16497 | 94.80541 | 3698 ft | 0 kts | 354° |